createdAt,value
2019-04-27T00:02:22.127Z,15.70
2019-04-27T00:05:03.302Z,18.67
2019-04-27T00:08:00.942Z,17.67
2019-04-27T00:10:59.905Z,17.30
2019-04-27T00:13:30.481Z,16.90
2019-04-27T00:16:17.758Z,18.03
2019-04-27T00:19:07.004Z,18.57
2019-04-27T00:21:52.939Z,14.20
2019-04-27T00:24:23.556Z,18.27
2019-04-27T00:26:54.038Z,18.43
2019-04-27T00:29:25.919Z,15.17
2019-04-27T00:31:55.808Z,17.13
2019-04-27T00:34:25.758Z,14.53
2019-04-27T00:37:03.830Z,15.13
2019-04-27T00:39:48.312Z,17.70
2019-04-27T00:42:18.223Z,19.40
2019-04-27T00:44:48.186Z,20.07
2019-04-27T00:47:18.060Z,23.63
2019-04-27T00:49:48.072Z,16.43
2019-04-27T00:52:18.072Z,22.23
2019-04-27T00:54:47.939Z,27.43
2019-04-27T00:57:40.449Z,19.30
2019-04-27T01:00:28.116Z,21.17
2019-04-27T01:03:00.813Z,22.27
2019-04-27T01:05:30.859Z,22.47
2019-04-27T01:08:00.732Z,21.97
2019-04-27T01:10:30.590Z,19.17
2019-04-27T01:13:00.449Z,22.93
2019-04-27T01:15:30.360Z,20.57
2019-04-27T01:18:11.494Z,21.67
2019-04-27T01:20:31.850Z,27.23
2019-04-27T01:23:01.748Z,23.90
2019-04-27T01:26:02.809Z,22.23
2019-04-27T01:28:38.887Z,20.63
2019-04-27T01:31:11.144Z,23.70
2019-04-27T01:33:40.854Z,19.40
2019-04-27T01:36:10.870Z,22.80
2019-04-27T01:38:41.165Z,24.23
2019-04-27T01:41:11.066Z,20.20
2019-04-27T01:43:40.728Z,21.07
2019-04-27T01:46:10.654Z,19.57
2019-04-27T01:48:40.614Z,23.70
2019-04-27T01:51:10.371Z,24.60
2019-04-27T01:53:40.321Z,23.40
2019-04-27T01:56:10.371Z,27.87
2019-04-27T01:58:40.165Z,26.13
2019-04-27T02:01:30.005Z,26.60
2019-04-27T02:04:19.339Z,24.40
2019-04-27T02:06:51.516Z,30.63
2019-04-27T02:09:22.271Z,23.10
2019-04-27T02:11:52.333Z,27.77
2019-04-27T02:14:22.379Z,29.73
2019-04-27T02:16:52.144Z,32.10
2019-04-27T02:19:21.943Z,24.63
2019-04-27T02:21:51.832Z,27.17
2019-04-27T02:24:21.576Z,26.60
2019-04-27T02:26:51.411Z,25.97
2019-04-27T02:29:31.015Z,28.33
2019-04-27T02:32:20.386Z,31.00
2019-04-27T02:35:11.331Z,33.63
2019-04-27T02:37:41.339Z,33.83
2019-04-27T02:40:42.384Z,29.00
2019-04-27T02:43:11.179Z,33.17
2019-04-27T02:45:41.033Z,28.70
2019-04-27T02:48:10.828Z,28.27
2019-04-27T02:50:40.741Z,29.43
2019-04-27T02:53:11.296Z,32.63
2019-04-27T02:55:41.382Z,34.53
2019-04-27T02:58:13.064Z,26.67
2019-04-27T03:00:42.811Z,25.47
2019-04-27T03:03:14.714Z,22.90
2019-04-27T03:05:44.433Z,25.40
2019-04-27T03:08:14.264Z,22.47
2019-04-27T03:10:44.003Z,26.47
2019-04-27T03:13:35.605Z,23.50
2019-04-27T03:16:30.582Z,22.33
2019-04-27T03:19:21.645Z,23.47
2019-04-27T03:22:00.127Z,23.53
2019-04-27T03:24:49.794Z,27.90
2019-04-27T03:27:20.505Z,20.33
2019-04-27T03:29:50.334Z,22.63
2019-04-27T03:32:22.799Z,22.53
2019-04-27T03:34:52.797Z,22.77
2019-04-27T03:37:22.599Z,22.77
2019-04-27T03:39:52.484Z,22.43
2019-04-27T03:42:22.820Z,23.57
2019-04-27T03:44:52.704Z,27.03
2019-04-27T03:47:22.417Z,21.83
2019-04-27T03:49:52.399Z,19.33
2019-04-27T03:52:31.203Z,18.77
2019-04-27T03:55:14.465Z,18.93
2019-04-27T03:57:53.237Z,19.17
2019-04-27T04:00:26.328Z,20.20
2019-04-27T04:02:56.245Z,20.90
2019-04-27T04:05:26.368Z,19.33
2019-04-27T04:07:57.607Z,22.43
2019-04-27T04:10:29.312Z,24.10
2019-04-27T04:13:01.885Z,23.57
2019-04-27T04:15:52.713Z,19.53
2019-04-27T04:18:23.228Z,21.07
2019-04-27T04:20:52.979Z,24.47
2019-04-27T04:23:24.166Z,22.20
2019-04-27T04:25:53.867Z,26.70
2019-04-27T04:28:23.781Z,20.07
2019-04-27T04:30:54.831Z,17.43
2019-04-27T04:33:24.715Z,19.23
2019-04-27T04:35:55.762Z,18.67
2019-04-27T04:38:25.589Z,17.47
2019-04-27T04:41:01.380Z,15.70
2019-04-27T04:43:54.401Z,16.67
2019-04-27T04:46:41.640Z,13.00
2019-04-27T04:49:12.798Z,16.57
2019-04-27T04:51:42.596Z,15.40
2019-04-27T04:54:12.300Z,16.00
2019-04-27T04:56:43.398Z,16.27
2019-04-27T04:59:13.247Z,17.83
2019-04-27T05:01:43.512Z,14.47
2019-04-27T05:04:13.457Z,13.23
2019-04-27T05:06:43.322Z,12.93
2019-04-27T05:09:13.142Z,15.00
2019-04-27T05:11:42.981Z,13.13
2019-04-27T05:14:12.651Z,12.57
2019-04-27T05:16:42.403Z,12.97
2019-04-27T05:19:13.299Z,13.30
2019-04-27T05:21:43.110Z,12.30
2019-04-27T05:24:12.865Z,14.47
2019-04-27T05:26:42.647Z,11.53
2019-04-27T05:29:12.515Z,14.43
2019-04-27T05:31:42.402Z,12.60
2019-04-27T05:34:12.302Z,9.87
2019-04-27T05:36:48.766Z,13.53
2019-04-27T05:39:18.165Z,13.43
2019-04-27T05:41:45.335Z,13.43
2019-04-27T05:44:39.657Z,14.23
2019-04-27T05:47:14.922Z,9.87
2019-04-27T05:49:51.710Z,13.93
2019-04-27T05:52:33.436Z,14.17
2019-04-27T05:55:03.270Z,13.10
2019-04-27T05:57:33.054Z,15.50
2019-04-27T06:00:03.186Z,13.07
2019-04-27T06:02:32.998Z,13.00
2019-04-27T06:05:02.797Z,14.97
2019-04-27T06:07:32.680Z,14.07
2019-04-27T06:10:02.648Z,11.70
2019-04-27T06:12:32.480Z,13.00
2019-04-27T06:15:02.498Z,12.20
2019-04-27T06:17:32.296Z,18.63
2019-04-27T06:20:02.042Z,14.00
2019-04-27T06:22:31.917Z,9.63
2019-04-27T06:25:01.731Z,11.77
2019-04-27T06:27:31.579Z,10.23
2019-04-27T06:30:01.249Z,11.77
2019-04-27T06:32:31.176Z,10.27
2019-04-27T06:35:01.243Z,11.17
2019-04-27T06:37:31.003Z,11.17
2019-04-27T06:40:01.229Z,11.73
2019-04-27T06:42:32.270Z,9.80
2019-04-27T06:45:02.077Z,10.80
2019-04-27T06:47:31.799Z,9.23
2019-04-27T06:50:02.880Z,8.87
2019-04-27T06:52:32.750Z,15.10
2019-04-27T06:55:02.666Z,12.40
2019-04-27T06:57:32.424Z,15.50
2019-04-27T07:00:02.191Z,13.67
2019-04-27T07:02:31.902Z,8.80
2019-04-27T07:05:01.658Z,8.97
2019-04-27T07:07:31.380Z,13.47
2019-04-27T07:10:01.262Z,14.43
2019-04-27T07:12:31.013Z,10.83
2019-04-27T07:15:00.887Z,13.67
2019-04-27T07:17:30.806Z,12.03
2019-04-27T07:20:00.676Z,14.40
2019-04-27T07:22:30.530Z,12.57
2019-04-27T07:25:00.499Z,14.17
2019-04-27T07:27:30.352Z,10.87
2019-04-27T07:30:01.745Z,11.20
2019-04-27T07:32:32.865Z,11.93
2019-04-27T07:35:02.665Z,10.13
2019-04-27T07:37:32.595Z,8.80
2019-04-27T07:40:03.678Z,15.20
2019-04-27T07:42:34.152Z,10.83
2019-04-27T07:45:32.149Z,10.33
2019-04-27T07:48:02.051Z,12.93
2019-04-27T07:50:31.671Z,9.20
2019-04-27T07:53:02.739Z,11.73
2019-04-27T07:55:32.525Z,13.90
2019-04-27T07:58:04.938Z,9.50
2019-04-27T08:00:33.746Z,10.57
2019-04-27T08:03:03.727Z,13.33
2019-04-27T08:05:33.649Z,10.30
2019-04-27T08:08:03.429Z,9.63
2019-04-27T08:10:34.596Z,10.50
2019-04-27T08:13:04.412Z,20.07
2019-04-27T08:15:34.104Z,12.60
2019-04-27T08:18:04.117Z,10.60
2019-04-27T08:20:33.952Z,12.37
2019-04-27T08:23:03.757Z,9.13
2019-04-27T08:25:33.709Z,8.27
2019-04-27T08:28:10.429Z,13.53
2019-04-27T08:31:00.408Z,10.93
2019-04-27T08:33:30.235Z,9.40
2019-04-27T08:36:00.071Z,8.33
2019-04-27T08:38:31.134Z,9.80
2019-04-27T08:41:01.016Z,10.93
2019-04-27T08:43:31.858Z,15.87
2019-04-27T08:46:01.626Z,10.03
2019-04-27T08:48:36.852Z,8.00
2019-04-27T08:51:03.109Z,6.53
2019-04-27T08:53:32.877Z,9.23
2019-04-27T08:56:04.032Z,6.93
2019-04-27T08:58:33.820Z,11.90
2019-04-27T09:01:03.756Z,9.93
2019-04-27T09:03:33.503Z,10.87
2019-04-27T09:06:06.820Z,7.60
2019-04-27T09:08:51.189Z,7.20
2019-04-27T09:11:40.516Z,9.77
2019-04-27T09:14:32.214Z,12.33
2019-04-27T09:17:09.781Z,12.80
2019-04-27T09:20:09.459Z,8.07
2019-04-27T09:22:39.311Z,10.17
2019-04-27T09:25:09.403Z,13.70
2019-04-27T09:27:39.381Z,7.23
2019-04-27T09:30:10.337Z,7.30
2019-04-27T09:32:40.831Z,6.53
2019-04-27T09:35:10.654Z,10.17
2019-04-27T09:37:40.635Z,7.93
2019-04-27T09:40:10.913Z,10.80
2019-04-27T09:42:40.748Z,7.23
2019-04-27T09:45:11.116Z,11.40
2019-04-27T09:47:40.760Z,7.97
2019-04-27T09:50:11.018Z,9.83
2019-04-27T09:52:40.887Z,10.93
2019-04-27T09:55:10.913Z,7.37
2019-04-27T09:57:40.786Z,12.90
2019-04-27T10:00:11.853Z,11.57
2019-04-27T10:02:41.909Z,8.00
2019-04-27T10:05:12.463Z,11.17
2019-04-27T10:07:42.128Z,10.17
2019-04-27T10:10:12.576Z,12.10
2019-04-27T10:12:43.904Z,9.90
2019-04-27T10:15:13.742Z,12.27
2019-04-27T10:17:43.655Z,8.53
2019-04-27T10:20:13.625Z,8.03
2019-04-27T10:22:43.888Z,7.57
2019-04-27T10:25:27.841Z,12.87
2019-04-27T10:28:00.733Z,8.00
2019-04-27T10:30:31.600Z,6.87
2019-04-27T10:33:01.476Z,10.57
2019-04-27T10:35:31.511Z,8.63
2019-04-27T10:38:01.366Z,9.90
2019-04-27T10:40:31.242Z,10.50
2019-04-27T10:43:01.163Z,8.07
2019-04-27T10:45:30.917Z,7.27
2019-04-27T10:48:00.761Z,7.07
2019-04-27T10:50:30.802Z,7.53
2019-04-27T10:53:00.742Z,6.33
2019-04-27T10:55:30.645Z,10.10
2019-04-27T10:58:00.385Z,8.53
2019-04-27T11:00:36.824Z,5.90
2019-04-27T11:03:07.186Z,6.33
2019-04-27T11:05:52.762Z,7.27
2019-04-27T11:08:22.583Z,7.10
2019-04-27T11:10:52.344Z,5.67
2019-04-27T11:13:22.274Z,10.07
2019-04-27T11:15:52.238Z,7.60
2019-04-27T11:18:22.099Z,5.23
2019-04-27T11:20:52.013Z,8.30
2019-04-27T11:23:21.983Z,7.13
2019-04-27T11:25:52.967Z,5.87
2019-04-27T11:28:22.679Z,6.70
2019-04-27T11:30:53.775Z,6.00
2019-04-27T11:33:23.634Z,5.80
2019-04-27T11:36:16.986Z,5.17
2019-04-27T11:38:48.308Z,5.27
2019-04-27T11:41:19.426Z,8.00
2019-04-27T11:43:49.218Z,10.73
2019-04-27T11:46:18.943Z,6.40
2019-04-27T11:48:50.174Z,7.33
2019-04-27T11:51:20.038Z,5.97
2019-04-27T11:53:51.188Z,5.53
2019-04-27T11:56:20.955Z,8.63
2019-04-27T11:58:50.770Z,8.17
2019-04-27T12:01:20.749Z,7.93
2019-04-27T12:03:50.618Z,7.20
2019-04-27T12:06:20.463Z,8.10
2019-04-27T12:08:50.120Z,9.70
2019-04-27T12:11:19.959Z,11.30
2019-04-27T12:13:50.917Z,8.23
2019-04-27T12:16:20.702Z,7.83
2019-04-27T12:18:50.616Z,7.63
2019-04-27T12:21:20.587Z,13.30
2019-04-27T12:23:50.455Z,9.53
2019-04-27T12:26:36.259Z,10.50
2019-04-27T12:29:07.448Z,7.10
2019-04-27T12:31:39.616Z,6.60
2019-04-27T12:34:09.486Z,8.47
2019-04-27T12:36:39.401Z,7.57
2019-04-27T12:39:13.373Z,9.63
2019-04-27T12:41:43.514Z,5.97
2019-04-27T12:44:13.498Z,7.50
2019-04-27T12:46:43.269Z,7.07
2019-04-27T12:49:13.298Z,7.70
2019-04-27T12:51:43.538Z,8.47
2019-04-27T12:54:36.242Z,6.33
2019-04-27T12:57:26.378Z,8.33
2019-04-27T13:00:16.544Z,6.37
2019-04-27T13:02:46.731Z,5.17
2019-04-27T13:05:16.670Z,6.87
2019-04-27T13:07:46.473Z,5.63
2019-04-27T13:10:16.633Z,6.60
2019-04-27T13:12:46.545Z,9.93
2019-04-27T13:15:17.168Z,7.80
2019-04-27T13:17:46.915Z,6.70
2019-04-27T13:20:16.804Z,8.10
2019-04-27T13:22:46.917Z,8.73
2019-04-27T13:25:16.838Z,7.33
2019-04-27T13:27:48.124Z,7.17
2019-04-27T13:30:19.843Z,8.33
2019-04-27T13:32:49.666Z,9.30
2019-04-27T13:35:19.378Z,7.47
2019-04-27T13:37:49.305Z,6.70
2019-04-27T13:40:19.737Z,9.23
2019-04-27T13:43:16.641Z,7.20
2019-04-27T13:45:53.929Z,8.87
2019-04-27T13:48:41.382Z,6.53
2019-04-27T13:51:14.262Z,7.17
2019-04-27T13:53:45.614Z,7.83
2019-04-27T13:56:17.140Z,6.20
2019-04-27T13:58:46.849Z,6.40
2019-04-27T14:01:16.718Z,6.00
2019-04-27T14:03:46.767Z,6.10
2019-04-27T14:06:16.665Z,7.50
2019-04-27T14:08:46.542Z,7.97
2019-04-27T14:11:18.108Z,8.00
2019-04-27T14:13:48.494Z,6.83
2019-04-27T14:16:18.955Z,8.30
2019-04-27T14:18:48.772Z,6.93
2019-04-27T14:21:18.731Z,7.07
2019-04-27T14:23:48.554Z,9.17
2019-04-27T14:26:18.594Z,8.07
2019-04-27T14:28:49.882Z,9.00
2019-04-27T14:31:20.985Z,8.40
2019-04-27T14:33:52.822Z,9.53
2019-04-27T14:36:22.586Z,11.53
2019-04-27T14:38:52.583Z,7.57
2019-04-27T14:41:22.622Z,11.57
2019-04-27T14:44:05.425Z,9.63
2019-04-27T14:46:24.083Z,10.23
2019-04-27T14:48:53.913Z,7.57
2019-04-27T14:51:23.859Z,10.57
2019-04-27T14:53:53.587Z,9.37
2019-04-27T14:56:24.868Z,10.27
2019-04-27T14:58:55.137Z,9.70
2019-04-27T15:01:25.093Z,9.77
2019-04-27T15:03:54.845Z,10.53
2019-04-27T15:06:25.821Z,13.73
2019-04-27T15:08:55.891Z,16.47
2019-04-27T15:11:25.857Z,15.07
2019-04-27T15:13:59.294Z,17.33
2019-04-27T15:16:28.442Z,18.17
2019-04-27T15:19:02.434Z,18.37
2019-04-27T15:21:38.371Z,16.30
2019-04-27T15:24:10.259Z,21.20
2019-04-27T15:26:36.353Z,17.80
2019-04-27T15:29:07.386Z,18.33
2019-04-27T15:31:41.337Z,22.57
2019-04-27T15:34:29.977Z,17.97
2019-04-27T15:37:35.281Z,23.67
2019-04-27T15:40:35.492Z,21.50
2019-04-27T15:43:30.408Z,22.63
2019-04-27T15:45:58.723Z,25.00
2019-04-27T15:48:30.688Z,28.40
2019-04-27T15:51:03.239Z,23.57
2019-04-27T15:53:31.747Z,26.87
2019-04-27T15:56:02.026Z,26.47
2019-04-27T15:58:32.024Z,30.87
2019-04-27T16:01:06.684Z,31.30
2019-04-27T16:03:34.751Z,26.47
2019-04-27T16:06:08.114Z,26.07
2019-04-27T16:08:38.261Z,27.63
2019-04-27T16:11:09.911Z,27.77
2019-04-27T16:13:40.195Z,26.87
2019-04-27T16:16:10.177Z,23.87
2019-04-27T16:18:41.315Z,24.13
2019-04-27T16:21:12.375Z,30.60
2019-04-27T16:23:43.129Z,28.80
2019-04-27T16:26:14.869Z,31.83
2019-04-27T16:28:49.681Z,38.50
2019-04-27T16:31:18.667Z,30.10
2019-04-27T16:33:49.603Z,30.17
2019-04-27T16:36:20.991Z,23.50
2019-04-27T16:39:03.794Z,27.87
2019-04-27T16:41:37.316Z,28.80
2019-04-27T16:44:08.806Z,24.40
2019-04-27T16:46:39.387Z,32.93
2019-04-27T16:49:13.789Z,28.70
2019-04-27T16:51:42.496Z,28.90
2019-04-27T16:54:17.524Z,33.73
2019-04-27T16:56:45.548Z,40.93
2019-04-27T16:59:36.434Z,38.90
2019-04-27T17:01:50.143Z,32.93
2019-04-27T17:04:19.750Z,39.23
2019-04-27T17:06:49.665Z,34.20
2019-04-27T17:09:19.411Z,38.40
2019-04-27T17:11:51.736Z,38.37
2019-04-27T17:14:34.813Z,33.50
2019-04-27T17:17:29.576Z,32.03
2019-04-27T17:20:03.177Z,32.13
2019-04-27T17:22:32.884Z,36.80
2019-04-27T17:25:02.824Z,37.87
2019-04-27T17:27:41.263Z,33.37
2019-04-27T17:30:11.339Z,39.87
2019-04-27T17:33:01.496Z,37.73
2019-04-27T17:35:34.787Z,40.53
2019-04-27T17:38:03.747Z,38.87
2019-04-27T17:40:36.026Z,41.43
2019-04-27T17:43:07.995Z,36.73
2019-04-27T17:45:39.254Z,36.77
2019-04-27T17:48:10.844Z,37.57
2019-04-27T17:50:40.676Z,38.43
2019-04-27T17:53:10.610Z,47.00
2019-04-27T17:55:41.782Z,43.33
2019-04-27T17:58:11.567Z,45.87
2019-04-27T18:00:44.581Z,44.20
2019-04-27T18:03:17.559Z,48.47
2019-04-27T18:05:50.570Z,49.87
2019-04-27T18:08:20.310Z,46.27
2019-04-27T18:10:47.743Z,49.13
2019-04-27T18:13:20.728Z,49.43
2019-04-27T18:15:50.617Z,46.37
2019-04-27T18:18:38.004Z,45.67
2019-04-27T18:21:08.470Z,46.60
2019-04-27T18:23:40.166Z,40.97
2019-04-27T18:26:19.320Z,37.13
2019-04-27T18:28:53.760Z,41.33
2019-04-27T18:31:21.651Z,42.37
2019-04-27T18:33:51.524Z,41.17
2019-04-27T18:36:21.547Z,39.77
2019-04-27T18:38:51.456Z,38.43
2019-04-27T18:41:21.220Z,38.70
2019-04-27T18:43:54.707Z,39.23
2019-04-27T18:46:24.820Z,38.83
2019-04-27T18:49:13.156Z,39.87
2019-04-27T18:51:58.172Z,42.63
2019-04-27T18:54:26.202Z,38.67
2019-04-27T18:57:02.882Z,35.40
2019-04-27T18:59:28.827Z,35.43
2019-04-27T19:01:58.697Z,38.83
2019-04-27T19:04:28.678Z,31.13
2019-04-27T19:07:00.122Z,37.87
2019-04-27T19:09:31.171Z,40.50
2019-04-27T19:12:00.971Z,31.53
2019-04-27T19:14:30.680Z,36.23
2019-04-27T19:17:00.526Z,35.07
2019-04-27T19:19:30.210Z,32.40
2019-04-27T19:22:00.136Z,34.57
2019-04-27T19:24:29.975Z,41.90
2019-04-27T19:27:21.085Z,33.97
2019-04-27T19:29:53.777Z,36.33
2019-04-27T19:32:23.813Z,38.00
2019-04-27T19:34:54.900Z,38.87
2019-04-27T19:37:24.705Z,41.67
2019-04-27T19:39:55.882Z,38.33
2019-04-27T19:42:25.662Z,39.63
2019-04-27T19:44:55.378Z,35.00
2019-04-27T19:47:25.254Z,34.33
2019-04-27T19:49:55.116Z,38.63
2019-04-27T19:52:27.775Z,39.70
2019-04-27T19:54:58.545Z,38.27
2019-04-27T19:57:36.391Z,41.47
2019-04-27T20:00:02.568Z,34.37
2019-04-27T20:02:32.445Z,34.80
2019-04-27T20:05:08.463Z,34.00
2019-04-27T20:07:38.263Z,37.00
2019-04-27T20:10:09.212Z,38.93
2019-04-27T20:12:40.948Z,39.40
2019-04-27T20:15:11.112Z,35.10
2019-04-27T20:17:41.147Z,39.90
2019-04-27T20:20:12.820Z,37.27
2019-04-27T20:22:43.613Z,32.97
2019-04-27T20:25:14.771Z,37.37
2019-04-27T20:27:49.146Z,33.70
2019-04-27T20:30:16.812Z,35.23
2019-04-27T20:32:48.016Z,35.83
2019-04-27T20:35:17.687Z,33.40
2019-04-27T20:37:47.397Z,38.33
2019-04-27T20:40:18.555Z,33.13
2019-04-27T20:42:48.357Z,33.57
2019-04-27T20:45:18.267Z,29.63
2019-04-27T20:47:48.146Z,34.43
2019-04-27T20:50:17.803Z,33.47
2019-04-27T20:52:56.647Z,29.77
2019-04-27T20:55:26.552Z,37.13
2019-04-27T20:58:01.709Z,36.00
2019-04-27T21:00:28.158Z,29.93
2019-04-27T21:03:08.717Z,30.07
2019-04-27T21:05:55.090Z,30.33
2019-04-27T21:08:25.153Z,31.90
2019-04-27T21:10:54.907Z,29.47
2019-04-27T21:13:24.839Z,32.03
2019-04-27T21:15:54.743Z,29.87
2019-04-27T21:18:24.561Z,33.33
2019-04-27T21:20:54.325Z,34.40
2019-04-27T21:23:24.106Z,28.93
2019-04-27T21:25:54.026Z,32.83
2019-04-27T21:28:23.998Z,32.23
2019-04-27T21:30:53.908Z,29.80
2019-04-27T21:33:23.755Z,27.40
2019-04-27T21:35:53.667Z,32.17
2019-04-27T21:38:23.632Z,39.53
2019-04-27T21:40:53.498Z,31.77
2019-04-27T21:43:23.786Z,34.53
2019-04-27T21:45:53.539Z,30.50
2019-04-27T21:48:23.467Z,34.40
2019-04-27T21:50:53.426Z,34.17
2019-04-27T21:53:41.195Z,30.70
2019-04-27T21:56:12.038Z,28.43
2019-04-27T21:58:42.124Z,38.33
2019-04-27T22:01:43.503Z,27.87
2019-04-27T22:04:13.519Z,29.97
2019-04-27T22:06:43.392Z,31.47
2019-04-27T22:09:14.445Z,32.43
2019-04-27T22:11:44.465Z,31.20
2019-04-27T22:14:14.231Z,36.27
2019-04-27T22:16:44.263Z,32.57
2019-04-27T22:19:14.221Z,31.43
2019-04-27T22:21:44.211Z,31.37
2019-04-27T22:24:33.284Z,33.00
2019-04-27T22:27:03.106Z,36.70
2019-04-27T22:29:32.900Z,29.17
2019-04-27T22:32:02.885Z,28.70
2019-04-27T22:34:32.731Z,28.20
2019-04-27T22:37:02.798Z,33.27
2019-04-27T22:39:42.482Z,28.73
2019-04-27T22:42:31.397Z,30.73
2019-04-27T22:45:08.280Z,28.50
2019-04-27T22:47:38.048Z,34.17
2019-04-27T22:50:08.506Z,28.93
2019-04-27T22:52:38.307Z,30.83
2019-04-27T22:55:08.100Z,35.30
2019-04-27T22:57:45.859Z,27.83
2019-04-27T23:00:31.149Z,34.60
2019-04-27T23:03:02.766Z,30.70
2019-04-27T23:05:32.776Z,32.90
2019-04-27T23:08:02.563Z,32.23
2019-04-27T23:10:32.787Z,34.03
2019-04-27T23:13:02.672Z,34.37
2019-04-27T23:15:38.707Z,33.50
2019-04-27T23:18:08.625Z,32.07
2019-04-27T23:20:38.523Z,32.67
2019-04-27T23:23:08.423Z,33.83
2019-04-27T23:25:38.451Z,35.00
2019-04-27T23:28:08.378Z,32.10
2019-04-27T23:30:55.843Z,30.73
2019-04-27T23:33:25.593Z,34.70
2019-04-27T23:35:55.343Z,32.93
2019-04-27T23:38:25.144Z,33.47
2019-04-27T23:40:55.051Z,32.20
2019-04-27T23:43:25.009Z,36.63
2019-04-27T23:45:55.651Z,33.00
2019-04-27T23:48:25.304Z,35.47
2019-04-27T23:51:00.117Z,39.70
2019-04-27T23:53:31.872Z,39.50
2019-04-27T23:56:01.611Z,36.87
2019-04-27T23:58:31.495Z,31.63
